Terminal Aerodrome Forecast
Issued by NWS

Home | Current Version | Previous Version | Text Only | Print | Product List | Glossary Off
Versions: 1 2 3 4 5 6 7 8 9 10 11 12

000
FTUS43 KICT 072321
TAFCNU
TAF
KCNU 072321Z 0800/0824 30015G22KT P6SM SCT080
     FM080800 31018G25KT P6SM SCT050
     FM081100 32018G25KT P6SM BKN040
     FM081600 33022G30KT P6SM BKN045
     FM081800 33027G34KT P6SM OVC045=

USA.gov is the U.S. government's official web portal to all federal, state and local government web resources and services.